sensor_id;sensor_type;location;lat;lon;timestamp;pressure;altitude;pressure_sealevel;temperature;humidity
13974;BME280;7060;43.770;4.008;2024-03-02T00:01:51;100318.41;;;9.22;63.84
13974;BME280;7060;43.770;4.008;2024-03-02T00:04:19;100307.06;;;9.20;63.66
13974;BME280;7060;43.770;4.008;2024-03-02T00:06:47;100301.72;;;9.20;63.97
13974;BME280;7060;43.770;4.008;2024-03-02T00:09:18;100304.38;;;9.20;63.54
13974;BME280;7060;43.770;4.008;2024-03-02T00:11:46;100309.56;;;9.21;63.39
13974;BME280;7060;43.770;4.008;2024-03-02T00:14:15;100294.00;;;9.16;63.45
13974;BME280;7060;43.770;4.008;2024-03-02T00:16:45;100295.69;;;9.18;63.47
13974;BME280;7060;43.770;4.008;2024-03-02T00:19:13;100292.59;;;9.12;64.07
13974;BME280;7060;43.770;4.008;2024-03-02T00:21:41;100294.72;;;9.19;64.13
13974;BME280;7060;43.770;4.008;2024-03-02T00:24:18;100285.88;;;9.18;63.10
13974;BME280;7060;43.770;4.008;2024-03-02T00:26:48;100269.09;;;8.98;64.05
13974;BME280;7060;43.770;4.008;2024-03-02T00:29:17;100287.56;;;9.09;64.84
13974;BME280;7060;43.770;4.008;2024-03-02T00:31:47;100291.47;;;9.05;64.09
13974;BME280;7060;43.770;4.008;2024-03-02T00:34:17;100292.78;;;9.01;64.26
13974;BME280;7060;43.770;4.008;2024-03-02T00:36:45;100293.31;;;8.95;65.42
13974;BME280;7060;43.770;4.008;2024-03-02T00:39:16;100290.94;;;9.02;64.97
13974;BME280;7060;43.770;4.008;2024-03-02T00:41:44;100291.34;;;9.07;65.07
13974;BME280;7060;43.770;4.008;2024-03-02T00:44:13;100283.66;;;9.13;65.06
13974;BME280;7060;43.770;4.008;2024-03-02T00:46:43;100272.56;;;9.18;64.70
13974;BME280;7060;43.770;4.008;2024-03-02T00:49:18;100268.78;;;9.21;64.71
13974;BME280;7060;43.770;4.008;2024-03-02T00:51:48;100271.03;;;9.15;64.96
13974;BME280;7060;43.770;4.008;2024-03-02T00:54:19;100288.69;;;9.16;64.37
13974;BME280;7060;43.770;4.008;2024-03-02T00:56:48;100302.13;;;9.15;64.95
13974;BME280;7060;43.770;4.008;2024-03-02T00:59:16;100294.56;;;9.10;64.81
13974;BME280;7060;43.770;4.008;2024-03-02T01:01:44;100295.97;;;9.05;65.00
13974;BME280;7060;43.770;4.008;2024-03-02T01:04:14;100297.66;;;9.06;65.82
13974;BME280;7060;43.770;4.008;2024-03-02T01:06:42;100292.75;;;9.11;64.94
13974;BME280;7060;43.770;4.008;2024-03-02T01:09:10;100299.34;;;9.16;65.21
13974;BME280;7060;43.770;4.008;2024-03-02T01:11:39;100287.72;;;9.18;64.70
13974;BME280;7060;43.770;4.008;2024-03-02T01:14:07;100287.56;;;9.19;65.68
13974;BME280;7060;43.770;4.008;2024-03-02T01:16:35;100279.72;;;9.18;65.41
13974;BME280;7060;43.770;4.008;2024-03-02T01:19:03;100279.03;;;9.15;65.36
13974;BME280;7060;43.770;4.008;2024-03-02T01:21:33;100279.72;;;9.18;64.84
13974;BME280;7060;43.770;4.008;2024-03-02T01:24:01;100282.53;;;9.16;65.25
13974;BME280;7060;43.770;4.008;2024-03-02T01:26:29;100275.66;;;9.13;65.57
13974;BME280;7060;43.770;4.008;2024-03-02T01:28:58;100282.81;;;9.13;65.61
13974;BME280;7060;43.770;4.008;2024-03-02T01:31:26;100253.69;;;9.02;65.20
13974;BME280;7060;43.770;4.008;2024-03-02T01:33:54;100266.53;;;9.06;65.41
13974;BME280;7060;43.770;4.008;2024-03-02T01:36:22;100265.97;;;9.03;65.38
13974;BME280;7060;43.770;4.008;2024-03-02T01:38:52;100276.50;;;9.04;65.25
13974;BME280;7060;43.770;4.008;2024-03-02T01:41:19;100270.19;;;9.05;65.64
13974;BME280;7060;43.770;4.008;2024-03-02T01:43:47;100268.22;;;9.07;65.51
13974;BME280;7060;43.770;4.008;2024-03-02T01:46:16;100269.47;;;9.03;65.46
13974;BME280;7060;43.770;4.008;2024-03-02T01:48:44;100265.84;;;9.04;65.49
13974;BME280;7060;43.770;4.008;2024-03-02T01:51:12;100271.88;;;9.06;66.11
13974;BME280;7060;43.770;4.008;2024-03-02T01:53:41;100266.41;;;9.08;65.34
13974;BME280;7060;43.770;4.008;2024-03-02T01:56:10;100266.81;;;9.13;65.08
13974;BME280;7060;43.770;4.008;2024-03-02T01:58:38;100258.84;;;9.13;65.78
13974;BME280;7060;43.770;4.008;2024-03-02T02:01:06;100267.38;;;9.16;65.75
13974;BME280;7060;43.770;4.008;2024-03-02T02:03:35;100263.47;;;9.21;65.20
13974;BME280;7060;43.770;4.008;2024-03-02T02:06:04;100264.88;;;9.25;65.41
13974;BME280;7060;43.770;4.008;2024-03-02T02:08:32;100266.09;;;9.30;64.90
13974;BME280;7060;43.770;4.008;2024-03-02T02:11:00;100251.66;;;9.33;65.35
13974;BME280;7060;43.770;4.008;2024-03-02T02:13:29;100250.25;;;9.38;65.26
13974;BME280;7060;43.770;4.008;2024-03-02T02:16:04;100245.47;;;9.42;64.92
13974;BME280;7060;43.770;4.008;2024-03-02T02:18:32;100247.44;;;9.40;65.11
13974;BME280;7060;43.770;4.008;2024-03-02T02:21:00;100256.97;;;9.42;65.05
13974;BME280;7060;43.770;4.008;2024-03-02T02:23:30;100201.81;;;9.15;64.86
13974;BME280;7060;43.770;4.008;2024-03-02T02:25:58;100251.06;;;9.48;64.72
13974;BME280;7060;43.770;4.008;2024-03-02T02:28:26;100251.63;;;9.52;64.23
13974;BME280;7060;43.770;4.008;2024-03-02T02:30:54;100239.28;;;9.51;64.57
13974;BME280;7060;43.770;4.008;2024-03-02T02:33:23;100231.31;;;9.51;64.17
13974;BME280;7060;43.770;4.008;2024-03-02T02:35:52;100225.00;;;9.52;64.26
13974;BME280;7060;43.770;4.008;2024-03-02T02:38:20;100229.03;;;9.56;64.16
13974;BME280;7060;43.770;4.008;2024-03-02T02:40:49;100219.59;;;9.62;64.12
13974;BME280;7060;43.770;4.008;2024-03-02T02:43:17;100213.16;;;9.64;63.89
13974;BME280;7060;43.770;4.008;2024-03-02T02:45:45;100206.44;;;9.60;64.61
13974;BME280;7060;43.770;4.008;2024-03-02T02:48:13;100199.28;;;9.61;63.85
13974;BME280;7060;43.770;4.008;2024-03-02T02:50:41;100194.41;;;9.56;64.62
13974;BME280;7060;43.770;4.008;2024-03-02T02:53:10;100189.66;;;9.50;65.22
13974;BME280;7060;43.770;4.008;2024-03-02T02:55:39;100182.66;;;9.49;65.32
13974;BME280;7060;43.770;4.008;2024-03-02T02:58:08;100180.56;;;9.43;65.54
13974;BME280;7060;43.770;4.008;2024-03-02T03:00:36;100168.66;;;9.37;65.60
13974;BME280;7060;43.770;4.008;2024-03-02T03:03:04;100167.97;;;9.35;66.26
13974;BME280;7060;43.770;4.008;2024-03-02T03:05:32;100165.44;;;9.34;65.84
13974;BME280;7060;43.770;4.008;2024-03-02T03:08:00;100153.44;;;9.30;66.77
13974;BME280;7060;43.770;4.008;2024-03-02T03:10:29;100137.63;;;9.19;66.66
13974;BME280;7060;43.770;4.008;2024-03-02T03:12:57;100150.34;;;9.25;66.37
13974;BME280;7060;43.770;4.008;2024-03-02T03:15:27;100160.72;;;9.28;66.58
13974;BME280;7060;43.770;4.008;2024-03-02T03:17:55;100162.69;;;9.26;66.35
13974;BME280;7060;43.770;4.008;2024-03-02T03:20:23;100160.88;;;9.16;66.78
13974;BME280;7060;43.770;4.008;2024-03-02T03:22:51;100161.59;;;9.09;67.10
13974;BME280;7060;43.770;4.008;2024-03-02T03:25:19;100152.34;;;9.03;67.04
13974;BME280;7060;43.770;4.008;2024-03-02T03:27:47;100154.63;;;8.98;66.57
13974;BME280;7060;43.770;4.008;2024-03-02T03:30:15;100152.66;;;9.00;66.92
13974;BME280;7060;43.770;4.008;2024-03-02T03:32:44;100149.69;;;9.03;66.63
13974;BME280;7060;43.770;4.008;2024-03-02T03:35:14;100143.00;;;8.99;66.10
13974;BME280;7060;43.770;4.008;2024-03-02T03:37:42;100140.84;;;9.03;66.00
13974;BME280;7060;43.770;4.008;2024-03-02T03:40:11;100147.19;;;9.02;66.47
13974;BME280;7060;43.770;4.008;2024-03-02T03:42:40;100151.81;;;9.00;66.31
13974;BME280;7060;43.770;4.008;2024-03-02T03:45:09;100149.44;;;8.97;66.65
13974;BME280;7060;43.770;4.008;2024-03-02T03:47:37;100155.47;;;8.89;65.86
13974;BME280;7060;43.770;4.008;2024-03-02T03:50:07;100146.38;;;8.82;66.67
13974;BME280;7060;43.770;4.008;2024-03-02T03:52:35;100045.34;;;8.14;66.50
13974;BME280;7060;43.770;4.008;2024-03-02T03:55:04;100143.47;;;8.66;66.32
13974;BME280;7060;43.770;4.008;2024-03-02T03:57:33;100149.63;;;8.57;67.02
13974;BME280;7060;43.770;4.008;2024-03-02T04:00:01;100136.16;;;8.48;67.48
13974;BME280;7060;43.770;4.008;2024-03-02T04:02:37;100092.09;;;8.17;67.60
13974;BME280;7060;43.770;4.008;2024-03-02T04:05:07;100134.94;;;8.33;66.90
13974;BME280;7060;43.770;4.008;2024-03-02T04:07:38;100141.03;;;8.24;67.48
13974;BME280;7060;43.770;4.008;2024-03-02T04:10:08;100134.03;;;8.23;67.98
13974;BME280;7060;43.770;4.008;2024-03-02T04:12:37;100128.03;;;8.21;67.55
13974;BME280;7060;43.770;4.008;2024-03-02T04:15:05;100135.31;;;8.19;67.20
13974;BME280;7060;43.770;4.008;2024-03-02T04:17:34;100119.50;;;8.18;67.05
13974;BME280;7060;43.770;4.008;2024-03-02T04:20:03;100119.91;;;8.13;66.26
13974;BME280;7060;43.770;4.008;2024-03-02T04:22:34;100115.28;;;8.05;66.50
13974;BME280;7060;43.770;4.008;2024-03-02T04:25:03;100109.25;;;7.94;66.83
13974;BME280;7060;43.770;4.008;2024-03-02T04:27:34;100105.88;;;7.82;66.69
13974;BME280;7060;43.770;4.008;2024-03-02T04:30:03;100090.63;;;7.74;67.14
13974;BME280;7060;43.770;4.008;2024-03-02T04:32:32;100103.59;;;7.68;66.87
13974;BME280;7060;43.770;4.008;2024-03-02T04:35:00;100101.91;;;7.57;67.01
13974;BME280;7060;43.770;4.008;2024-03-02T04:37:28;100105.63;;;7.45;67.15
13974;BME280;7060;43.770;4.008;2024-03-02T04:39:59;100103.69;;;7.37;67.74
13974;BME280;7060;43.770;4.008;2024-03-02T04:42:27;100103.63;;;7.28;67.60
13974;BME280;7060;43.770;4.008;2024-03-02T04:44:55;100104.69;;;7.16;67.68
13974;BME280;7060;43.770;4.008;2024-03-02T04:47:23;100103.56;;;7.08;67.87
13974;BME280;7060;43.770;4.008;2024-03-02T04:49:51;100096.13;;;7.02;68.00
13974;BME280;7060;43.770;4.008;2024-03-02T04:52:19;100092.16;;;6.97;68.24
13974;BME280;7060;43.770;4.008;2024-03-02T04:54:47;100095.34;;;6.91;68.27
13974;BME280;7060;43.770;4.008;2024-03-02T04:57:34;100090.00;;;6.81;68.59
13974;BME280;7060;43.770;4.008;2024-03-02T05:00:02;100088.84;;;6.74;68.79
13974;BME280;7060;43.770;4.008;2024-03-02T05:02:33;100093.81;;;6.67;68.83
13974;BME280;7060;43.770;4.008;2024-03-02T05:05:01;100091.56;;;6.63;68.77
13974;BME280;7060;43.770;4.008;2024-03-02T05:07:30;100102.66;;;6.57;68.77
13974;BME280;7060;43.770;4.008;2024-03-02T05:09:58;100094.72;;;6.57;68.88
13974;BME280;7060;43.770;4.008;2024-03-02T05:12:26;100076.44;;;6.54;68.62
13974;BME280;7060;43.770;4.008;2024-03-02T05:15:23;100082.13;;;6.49;68.73
13974;BME280;7060;43.770;4.008;2024-03-02T05:17:51;100083.94;;;6.49;68.79
13974;BME280;7060;43.770;4.008;2024-03-02T05:20:20;100088.53;;;6.47;68.84
13974;BME280;7060;43.770;4.008;2024-03-02T05:22:48;100084.44;;;6.42;69.10
13974;BME280;7060;43.770;4.008;2024-03-02T05:25:16;100076.88;;;6.38;69.06
13974;BME280;7060;43.770;4.008;2024-03-02T05:27:44;100076.88;;;6.38;69.58
13974;BME280;7060;43.770;4.008;2024-03-02T05:30:13;100083.00;;;6.38;68.88
13974;BME280;7060;43.770;4.008;2024-03-02T05:32:43;100071.81;;;6.35;69.45
13974;BME280;7060;43.770;4.008;2024-03-02T05:35:11;100076.53;;;6.31;69.40
13974;BME280;7060;43.770;4.008;2024-03-02T05:37:39;100074.84;;;6.30;69.61
13974;BME280;7060;43.770;4.008;2024-03-02T05:40:08;100060.72;;;6.20;68.97
13974;BME280;7060;43.770;4.008;2024-03-02T05:42:37;100073.72;;;6.23;69.14
13974;BME280;7060;43.770;4.008;2024-03-02T05:45:08;100078.28;;;6.21;69.62
13974;BME280;7060;43.770;4.008;2024-03-02T05:47:36;100072.03;;;6.22;69.15
13974;BME280;7060;43.770;4.008;2024-03-02T05:50:07;100069.84;;;6.27;69.26
13974;BME280;7060;43.770;4.008;2024-03-02T05:52:35;100066.22;;;6.28;69.01
13974;BME280;7060;43.770;4.008;2024-03-02T05:55:04;100056.59;;;6.27;68.52
13974;BME280;7060;43.770;4.008;2024-03-02T05:57:32;100063.09;;;6.23;68.86
13974;BME280;7060;43.770;4.008;2024-03-02T06:00:15;100059.03;;;6.19;69.11
13974;BME280;7060;43.770;4.008;2024-03-02T06:02:44;100059.75;;;6.21;69.27
13974;BME280;7060;43.770;4.008;2024-03-02T06:05:13;100039.31;;;6.12;68.88
13974;BME280;7060;43.770;4.008;2024-03-02T06:07:41;100050.94;;;6.21;69.34
13974;BME280;7060;43.770;4.008;2024-03-02T06:10:10;100049.84;;;6.23;69.22
13974;BME280;7060;43.770;4.008;2024-03-02T06:12:40;100045.16;;;6.27;69.00
13974;BME280;7060;43.770;4.008;2024-03-02T06:15:09;100053.22;;;6.25;68.84
13974;BME280;7060;43.770;4.008;2024-03-02T06:17:37;100047.22;;;6.23;68.85
13974;BME280;7060;43.770;4.008;2024-03-02T06:20:06;100049.84;;;6.23;69.10
13974;BME280;7060;43.770;4.008;2024-03-02T06:22:36;100046.75;;;6.18;69.24
13974;BME280;7060;43.770;4.008;2024-03-02T06:25:05;100051.06;;;6.19;69.28
13974;BME280;7060;43.770;4.008;2024-03-02T06:27:33;100056.13;;;6.22;69.06
13974;BME280;7060;43.770;4.008;2024-03-02T06:30:01;100026.97;;;6.01;68.63
13974;BME280;7060;43.770;4.008;2024-03-02T06:32:31;100059.75;;;6.21;68.45
13974;BME280;7060;43.770;4.008;2024-03-02T06:34:59;100059.03;;;6.19;68.30
13974;BME280;7060;43.770;4.008;2024-03-02T06:37:27;100048.56;;;6.18;68.73
13974;BME280;7060;43.770;4.008;2024-03-02T06:39:56;100041.19;;;6.21;68.82
13974;BME280;7060;43.770;4.008;2024-03-02T06:42:24;100046.94;;;6.26;69.21
13974;BME280;7060;43.770;4.008;2024-03-02T06:44:52;100048.81;;;6.35;69.61
13974;BME280;7060;43.770;4.008;2024-03-02T06:47:20;100048.16;;;6.43;69.61
13974;BME280;7060;43.770;4.008;2024-03-02T06:49:48;100042.94;;;6.53;70.14
13974;BME280;7060;43.770;4.008;2024-03-02T06:52:17;100050.28;;;6.70;70.38
13974;BME280;7060;43.770;4.008;2024-03-02T06:54:50;100043.53;;;6.87;70.75
13974;BME280;7060;43.770;4.008;2024-03-02T06:57:19;100055.47;;;7.02;71.10
13974;BME280;7060;43.770;4.008;2024-03-02T06:59:47;100044.63;;;7.14;70.94
13974;BME280;7060;43.770;4.008;2024-03-02T07:02:18;100048.16;;;7.25;71.53
13974;BME280;7060;43.770;4.008;2024-03-02T07:04:46;100050.72;;;7.36;72.01
13974;BME280;7060;43.770;4.008;2024-03-02T07:07:14;100037.31;;;7.47;72.74
13974;BME280;7060;43.770;4.008;2024-03-02T07:09:41;100026.84;;;7.55;73.51
13974;BME280;7060;43.770;4.008;2024-03-02T07:12:09;100018.75;;;7.66;74.07
13974;BME280;7060;43.770;4.008;2024-03-02T07:14:38;100024.63;;;7.79;74.10
13974;BME280;7060;43.770;4.008;2024-03-02T07:17:23;100018.78;;;7.86;75.03
13974;BME280;7060;43.770;4.008;2024-03-02T07:19:52;100019.72;;;7.94;74.93
13974;BME280;7060;43.770;4.008;2024-03-02T07:22:21;100021.28;;;8.06;75.09
13974;BME280;7060;43.770;4.008;2024-03-02T07:24:49;100018.78;;;8.14;74.68
13974;BME280;7060;43.770;4.008;2024-03-02T07:27:17;100020.41;;;8.25;74.65
13974;BME280;7060;43.770;4.008;2024-03-02T07:29:47;100018.78;;;8.34;74.29
13974;BME280;7060;43.770;4.008;2024-03-02T07:32:15;100026.19;;;8.40;74.45
13974;BME280;7060;43.770;4.008;2024-03-02T07:34:43;100026.00;;;8.51;74.80
13974;BME280;7060;43.770;4.008;2024-03-02T07:37:11;100028.66;;;8.61;74.72
13974;BME280;7060;43.770;4.008;2024-03-02T07:39:39;100028.09;;;8.67;73.95
13974;BME280;7060;43.770;4.008;2024-03-02T07:42:07;100026.97;;;8.69;74.25
13974;BME280;7060;43.770;4.008;2024-03-02T07:44:35;100032.38;;;8.77;74.27
13974;BME280;7060;43.770;4.008;2024-03-02T07:47:06;100031.66;;;8.85;74.05
13974;BME280;7060;43.770;4.008;2024-03-02T07:49:34;100028.56;;;8.90;74.46
13974;BME280;7060;43.770;4.008;2024-03-02T07:52:03;100030.50;;;8.97;74.15
13974;BME280;7060;43.770;4.008;2024-03-02T07:54:31;100026.09;;;9.06;74.42
13974;BME280;7060;43.770;4.008;2024-03-02T07:56:59;100022.56;;;9.15;74.16
13974;BME280;7060;43.770;4.008;2024-03-02T07:59:27;100029.28;;;9.19;74.11
13974;BME280;7060;43.770;4.008;2024-03-02T08:01:55;100022.94;;;9.30;74.28
13974;BME280;7060;43.770;4.008;2024-03-02T08:04:27;100013.03;;;9.40;74.16
13974;BME280;7060;43.770;4.008;2024-03-02T08:06:56;100007.28;;;9.44;74.48
13974;BME280;7060;43.770;4.008;2024-03-02T08:09:24;100015.50;;;9.51;73.49
13974;BME280;7060;43.770;4.008;2024-03-02T08:11:52;100008.75;;;9.57;74.16
13974;BME280;7060;43.770;4.008;2024-03-02T08:14:20;100002.78;;;9.63;73.50
13974;BME280;7060;43.770;4.008;2024-03-02T08:16:48;99998.53;;;9.70;74.10
13974;BME280;7060;43.770;4.008;2024-03-02T08:19:16;99995.28;;;9.76;73.41
13974;BME280;7060;43.770;4.008;2024-03-02T08:21:46;100001.81;;;9.81;73.55
13974;BME280;7060;43.770;4.008;2024-03-02T08:24:14;99996.41;;;9.91;74.36
13974;BME280;7060;43.770;4.008;2024-03-02T08:26:42;99990.00;;;10.02;73.89
13974;BME280;7060;43.770;4.008;2024-03-02T08:29:10;99987.72;;;10.07;73.86
13974;BME280;7060;43.770;4.008;2024-03-02T08:31:38;99990.75;;;10.12;73.13
13974;BME280;7060;43.770;4.008;2024-03-02T08:34:08;99986.50;;;10.19;73.43
13974;BME280;7060;43.770;4.008;2024-03-02T08:36:36;99976.22;;;10.24;72.81
13974;BME280;7060;43.770;4.008;2024-03-02T08:39:06;99961.56;;;10.28;73.13
13974;BME280;7060;43.770;4.008;2024-03-02T08:41:42;99975.59;;;10.30;73.44
13974;BME280;7060;43.770;4.008;2024-03-02T08:44:10;99970.47;;;10.37;73.29
13974;BME280;7060;43.770;4.008;2024-03-02T08:46:39;99967.16;;;10.43;72.52
13974;BME280;7060;43.770;4.008;2024-03-02T08:49:07;99969.50;;;10.46;72.65
13974;BME280;7060;43.770;4.008;2024-03-02T08:51:35;99972.56;;;10.51;72.66
13974;BME280;7060;43.770;4.008;2024-03-02T08:54:04;99967.75;;;10.55;72.83
13974;BME280;7060;43.770;4.008;2024-03-02T08:56:33;99970.94;;;10.58;72.62
13974;BME280;7060;43.770;4.008;2024-03-02T08:59:01;99971.63;;;10.60;72.56
13974;BME280;7060;43.770;4.008;2024-03-02T09:01:29;99971.00;;;10.66;72.94
13974;BME280;7060;43.770;4.008;2024-03-02T09:03:57;99970.50;;;10.71;72.78
13974;BME280;7060;43.770;4.008;2024-03-02T09:06:25;99969.66;;;10.70;72.33
13974;BME280;7060;43.770;4.008;2024-03-02T09:08:53;99950.97;;;10.70;71.92
13974;BME280;7060;43.770;4.008;2024-03-02T09:11:21;99949.28;;;10.69;71.73
13974;BME280;7060;43.770;4.008;2024-03-02T09:13:51;99943.63;;;10.72;71.73
13974;BME280;7060;43.770;4.008;2024-03-02T09:16:19;99938.16;;;10.74;72.07
13974;BME280;7060;43.770;4.008;2024-03-02T09:18:47;99931.50;;;10.78;72.10
13974;BME280;7060;43.770;4.008;2024-03-02T09:21:15;99920.50;;;10.81;72.30
13974;BME280;7060;43.770;4.008;2024-03-02T09:23:43;99913.16;;;10.83;71.85
13974;BME280;7060;43.770;4.008;2024-03-02T09:26:12;99911.81;;;10.79;72.13
13974;BME280;7060;43.770;4.008;2024-03-02T09:28:42;99906.00;;;10.83;72.33
13974;BME280;7060;43.770;4.008;2024-03-02T09:31:12;99907.00;;;10.82;72.09
13974;BME280;7060;43.770;4.008;2024-03-02T09:33:40;99906.16;;;10.82;72.63
13974;BME280;7060;43.770;4.008;2024-03-02T09:36:16;99910.69;;;10.90;72.26
13974;BME280;7060;43.770;4.008;2024-03-02T09:38:44;99909.38;;;10.94;72.63
13974;BME280;7060;43.770;4.008;2024-03-02T09:41:13;99905.88;;;11.01;72.38
13974;BME280;7060;43.770;4.008;2024-03-02T09:43:41;99891.03;;;11.07;72.53
13974;BME280;7060;43.770;4.008;2024-03-02T09:46:09;99872.88;;;11.10;72.76
13974;BME280;7060;43.770;4.008;2024-03-02T09:48:39;99871.22;;;11.17;72.34
13974;BME280;7060;43.770;4.008;2024-03-02T09:51:08;99868.38;;;11.19;72.34
13974;BME280;7060;43.770;4.008;2024-03-02T09:53:36;99868.03;;;11.22;72.20
13974;BME280;7060;43.770;4.008;2024-03-02T09:56:05;99856.19;;;11.25;72.10
13974;BME280;7060;43.770;4.008;2024-03-02T09:58:34;99848.69;;;11.28;72.15
13974;BME280;7060;43.770;4.008;2024-03-02T10:01:05;99818.13;;;11.23;72.02
13974;BME280;7060;43.770;4.008;2024-03-02T10:03:33;99833.16;;;11.40;72.22
13974;BME280;7060;43.770;4.008;2024-03-02T10:06:22;99831.34;;;11.40;72.00
13974;BME280;7060;43.770;4.008;2024-03-02T10:08:51;99837.84;;;11.54;72.25
13974;BME280;7060;43.770;4.008;2024-03-02T10:11:27;99832.16;;;11.65;71.90
13974;BME280;7060;43.770;4.008;2024-03-02T10:14:06;99833.66;;;11.76;71.96
13974;BME280;7060;43.770;4.008;2024-03-02T10:16:39;99837.50;;;11.90;72.06
13974;BME280;7060;43.770;4.008;2024-03-02T10:19:17;99834.78;;;12.06;71.58
13974;BME280;7060;43.770;4.008;2024-03-02T10:21:47;99819.22;;;12.17;72.20
13974;BME280;7060;43.770;4.008;2024-03-02T10:24:16;99815.34;;;12.28;71.84
13974;BME280;7060;43.770;4.008;2024-03-02T10:26:44;99818.28;;;12.41;71.58
13974;BME280;7060;43.770;4.008;2024-03-02T10:29:12;99815.91;;;12.54;71.54
13974;BME280;7060;43.770;4.008;2024-03-02T10:31:41;99802.91;;;12.74;72.03
13974;BME280;7060;43.770;4.008;2024-03-02T10:34:11;99800.56;;;13.02;70.54
13974;BME280;7060;43.770;4.008;2024-03-02T10:36:41;99790.00;;;13.32;68.98
13974;BME280;7060;43.770;4.008;2024-03-02T10:39:12;99759.16;;;13.50;67.13
13974;BME280;7060;43.770;4.008;2024-03-02T10:41:41;99774.84;;;13.76;66.27
13974;BME280;7060;43.770;4.008;2024-03-02T10:44:09;99767.63;;;14.06;65.31
13974;BME280;7060;43.770;4.008;2024-03-02T10:46:38;99760.69;;;14.27;63.03
13974;BME280;7060;43.770;4.008;2024-03-02T10:49:06;99740.69;;;14.29;62.41
13974;BME280;7060;43.770;4.008;2024-03-02T10:51:35;99755.25;;;14.49;61.44
13974;BME280;7060;43.770;4.008;2024-03-02T10:54:05;99760.69;;;14.77;61.87
13974;BME280;7060;43.770;4.008;2024-03-02T10:56:39;99747.78;;;15.09;59.01
13974;BME280;7060;43.770;4.008;2024-03-02T10:59:16;99751.44;;;15.22;59.39
13974;BME280;7060;43.770;4.008;2024-03-02T11:01:47;99732.88;;;15.28;59.46
13974;BME280;7060;43.770;4.008;2024-03-02T11:04:17;99746.97;;;15.30;58.60
13974;BME280;7060;43.770;4.008;2024-03-02T11:06:48;99755.72;;;15.38;58.63
13974;BME280;7060;43.770;4.008;2024-03-02T11:09:19;99738.72;;;15.31;57.58
13974;BME280;7060;43.770;4.008;2024-03-02T11:11:55;99721.00;;;15.43;56.97
13974;BME280;7060;43.770;4.008;2024-03-02T11:14:24;99723.66;;;15.65;56.02
13974;BME280;7060;43.770;4.008;2024-03-02T11:16:53;99709.47;;;15.77;53.07
13974;BME280;7060;43.770;4.008;2024-03-02T11:19:21;99709.72;;;15.89;51.94
13974;BME280;7060;43.770;4.008;2024-03-02T11:21:51;99669.50;;;15.74;51.97
13974;BME280;7060;43.770;4.008;2024-03-02T11:24:30;99714.13;;;15.97;51.04
13974;BME280;7060;43.770;4.008;2024-03-02T11:27:06;99717.41;;;15.92;51.37
13974;BME280;7060;43.770;4.008;2024-03-02T11:29:47;99722.16;;;15.83;51.24
13974;BME280;7060;43.770;4.008;2024-03-02T11:32:19;99685.72;;;15.53;51.61
13974;BME280;7060;43.770;4.008;2024-03-02T11:34:49;99717.06;;;15.67;51.60
13974;BME280;7060;43.770;4.008;2024-03-02T11:37:19;99699.06;;;15.68;52.59
13974;BME280;7060;43.770;4.008;2024-03-02T11:39:49;99686.63;;;15.67;52.75
13974;BME280;7060;43.770;4.008;2024-03-02T11:42:19;99686.00;;;15.65;52.94
13974;BME280;7060;43.770;4.008;2024-03-02T11:44:48;99691.78;;;15.62;53.09
13974;BME280;7060;43.770;4.008;2024-03-02T11:47:17;99680.59;;;15.58;53.00
13974;BME280;7060;43.770;4.008;2024-03-02T11:49:46;99684.44;;;15.49;53.56
13974;BME280;7060;43.770;4.008;2024-03-02T11:52:17;99677.28;;;15.35;54.35
13974;BME280;7060;43.770;4.008;2024-03-02T11:54:46;99683.31;;;15.37;54.02
13974;BME280;7060;43.770;4.008;2024-03-02T11:57:17;99684.97;;;15.38;54.23
13974;BME280;7060;43.770;4.008;2024-03-02T11:59:48;99671.72;;;15.36;54.51
13974;BME280;7060;43.770;4.008;2024-03-02T12:02:17;99669.66;;;15.38;54.74
13974;BME280;7060;43.770;4.008;2024-03-02T12:04:46;99674.25;;;15.44;54.72
13974;BME280;7060;43.770;4.008;2024-03-02T12:07:19;99680.47;;;15.45;54.62
13974;BME280;7060;43.770;4.008;2024-03-02T12:09:48;99674.22;;;15.38;54.85
13974;BME280;7060;43.770;4.008;2024-03-02T12:12:16;99673.75;;;15.34;54.28
13974;BME280;7060;43.770;4.008;2024-03-02T12:14:52;99666.69;;;15.27;55.05
13974;BME280;7060;43.770;4.008;2024-03-02T12:17:22;99670.78;;;15.22;55.77
13974;BME280;7060;43.770;4.008;2024-03-02T12:19:50;99681.16;;;15.26;55.28
13974;BME280;7060;43.770;4.008;2024-03-02T12:22:19;99673.50;;;15.22;55.65
13974;BME280;7060;43.770;4.008;2024-03-02T12:24:49;99667.47;;;15.20;56.02
13974;BME280;7060;43.770;4.008;2024-03-02T12:27:17;99664.84;;;15.27;56.33
13974;BME280;7060;43.770;4.008;2024-03-02T12:29:48;99664.25;;;15.32;56.96
13974;BME280;7060;43.770;4.008;2024-03-02T12:32:18;99661.41;;;15.40;57.09
13974;BME280;7060;43.770;4.008;2024-03-02T12:34:46;99655.88;;;15.48;56.72
13974;BME280;7060;43.770;4.008;2024-03-02T12:37:14;99636.81;;;15.43;56.65
13974;BME280;7060;43.770;4.008;2024-03-02T12:39:44;99612.22;;;15.46;56.42
13974;BME280;7060;43.770;4.008;2024-03-02T12:42:13;99611.34;;;15.39;56.35
13974;BME280;7060;43.770;4.008;2024-03-02T12:44:40;99600.75;;;15.31;56.15
13974;BME280;7060;43.770;4.008;2024-03-02T12:47:08;99592.66;;;15.24;56.32
13974;BME280;7060;43.770;4.008;2024-03-02T12:49:41;99595.53;;;15.22;56.71
13974;BME280;7060;43.770;4.008;2024-03-02T12:52:11;99586.59;;;15.15;55.61
13974;BME280;7060;43.770;4.008;2024-03-02T12:54:39;99599.94;;;15.02;56.22
13974;BME280;7060;43.770;4.008;2024-03-02T12:57:08;99594.97;;;14.99;56.48
13974;BME280;7060;43.770;4.008;2024-03-02T12:59:35;99612.09;;;14.98;56.56
13974;BME280;7060;43.770;4.008;2024-03-02T13:02:04;99627.00;;;15.01;56.74
13974;BME280;7060;43.770;4.008;2024-03-02T13:04:32;99622.84;;;14.98;56.68
13974;BME280;7060;43.770;4.008;2024-03-02T13:07:01;99615.81;;;14.97;57.25
13974;BME280;7060;43.770;4.008;2024-03-02T13:09:30;99626.19;;;15.00;57.87
13974;BME280;7060;43.770;4.008;2024-03-02T13:12:00;99630.16;;;15.04;58.48
13974;BME280;7060;43.770;4.008;2024-03-02T13:14:32;99618.97;;;15.07;58.76
13974;BME280;7060;43.770;4.008;2024-03-02T13:17:00;99625.78;;;15.03;59.43
13974;BME280;7060;43.770;4.008;2024-03-02T13:19:30;99623.69;;;14.99;59.77
13974;BME280;7060;43.770;4.008;2024-03-02T13:22:00;99616.84;;;14.96;60.30